Albemarle Island — C6LU3 — position and weather

sailwx.info

Track history (hours):
 
Tides and Currents Weather Stations Pressure Air Temp Water Temp Dewpoint Dewpoint Depression Visibility Wind Speed Wind Dir Waves Ship Positions

Albemarle Island

Last reported at 2018-May-18 01:03 UTC. Time now 2018-May-22 11:47 UTC.
Position N 58°45' W 003°43'.

Type: Cargo ship. MMSI: 308511000.

Date/timePositionNaut miles runAvg speedWind from/ knotsBaromVisibWave heightAir tempDewpointWater temp
2018-May-18 01:03N 58°45' W 003°43'216.5
2018-May-18 00:56N 58°45' W 003°39'916.6
2018-May-18 00:24N 58°44' W 003°23'615.4
2018-May-18 00:00N 58°44' W 003°11'713.9
2018-May-17 23:30N 58°42' W 002°58'816.0
2018-May-17 23:00N 58°42' W 002°43'28714.7
2018-May-17 03:27N 57°36' E 006°07'1015.3
2018-May-17 02:49N 57°36' E 006°25'515.7
2018-May-17 02:29N 57°37' E 006°34'715.5
2018-May-17 02:00N 57°37' E 006°48'816.6
2018-May-17 01:30N 57°37' E 007°04'4117.1
2018-May-16 23:07N 57°40' E 008°20'217.4
2018-May-16 23:00N 57°40' E 008°23'917.1
2018-May-16 22:30N 57°42' E 008°39'917.3
2018-May-16 22:00N 57°44' E 008°55'816.8
2018-May-16 21:30N 57°46' E 009°11'816.8
2018-May-16 21:00N 57°47' E 009°26'816.7
2018-May-16 20:30N 57°49' E 009°41'816.9
2018-May-16 20:00N 57°49' E 009°57'816.3
2018-May-16 19:30N 57°49' E 010°12'816.3
2018-May-16 19:00N 57°49' E 010°28'816.1
2018-May-16 18:30N 57°49' E 010°43'815.8
2018-May-16 18:00N 57°44' E 010°55'917.3
2018-May-16 17:30N 57°38' E 011°06'917.1
2018-May-16 17:00N 57°33' E 011°18'816.2
2018-May-16 16:30N 57°26' E 011°28'917.3
2018-May-16 16:00N 57°18' E 011°33'917.2
2018-May-16 15:30N 57°10' E 011°38'917.0
2018-May-16 15:00N 57°02' E 011°44'817.0
2018-May-16 14:30N 56°54' E 011°49'917.1
2018-May-16 14:00N 56°46' E 011°54'2016.9
2018-May-16 12:49N 56°28' E 011°36'717.2
2018-May-16 12:25N 56°22' E 011°29'717.5
2018-May-16 12:00N 56°16' E 011°24'916.9
2018-May-16 11:30N 56°09' E 011°15'2417.1
2018-May-16 10:07N 55°50' E 010°50'1116.9
2018-May-16 09:29N 55°39' E 010°48'1117.4
2018-May-16 08:52N 55°29' E 010°54'617.6
2018-May-16 08:30N 55°24' E 011°01'917.1
2018-May-16 08:00N 55°16' E 011°05'816.5
2018-May-16 07:30N 55°08' E 011°03'917.3
2018-May-16 07:00N 54°59' E 011°02'816.7
2018-May-16 06:30N 54°52' E 010°53'917.6
2018-May-16 06:00N 54°43' E 010°53'817.0
2018-May-16 05:30N 54°38' E 011°04'917.8
2018-May-16 05:00N 54°34' E 011°18'917.5
2018-May-16 04:30N 54°30' E 011°31'917.5
2018-May-16 04:00N 54°26' E 011°45'917.5
2018-May-16 03:30N 54°26' E 012°00'815.6
2018-May-16 03:00N 54°29' E 012°13'917.2
2018-May-16 02:30N 54°37' E 012°17'917.5
2018-May-16 02:00N 54°42' E 012°29'917.4
2018-May-16 01:30N 54°47' E 012°42'4117.4
2018-May-15 23:09N 55°00' E 013°49'317.2
2018-May-15 23:00N 55°01' E 013°53'816.8
2018-May-15 22:30N 55°05' E 014°06'1017.0
2018-May-15 21:54N 55°13' E 014°16'717.4
2018-May-15 21:30N 55°18' E 014°25'917.7
2018-May-15 21:00N 55°25' E 014°34'917.2
2018-May-15 20:30N 55°30' E 014°47'917.4
2018-May-15 20:00N 55°34' E 015°01'917.2
2018-May-15 19:30N 55°38' E 015°15'917.3
2018-May-15 19:00N 55°42' E 015°28'917.3
2018-May-15 18:27N 55°46' E 015°43'817.2
2018-May-15 18:00N 55°50' E 015°54'27117.3
2018-May-15 02:21N 59°09' E 021°38'717.6
2018-May-15 01:58N 59°13' E 021°48'2717.5
2018-May-15 00:25N 59°31' E 022°29'1417.5
2018-May-14 23:35N 59°34' E 022°56'117.7
2018-May-14 23:30N 59°35' E 022°59'917.7
2018-May-14 23:00N 59°37' E 023°16'917.6
2018-May-14 22:30N 59°40' E 023°33'917.6
2018-May-14 22:00N 59°42' E 023°50'917.7
2018-May-14 21:29N 59°45' E 024°07'817.7
2018-May-14 21:01N 59°48' E 024°23'917.7
2018-May-14 20:30N 59°50' E 024°40'816.3
2018-May-14 20:00N 59°50' E 024°56'917.5
2018-May-14 19:30N 59°52' E 025°13'917.4
2018-May-14 19:00N 59°54' E 025°30'2219.1
2018-May-14 17:50N 59°58' E 026°14'411.9
2018-May-14 17:30N 59°60' E 026°21'817.4
2018-May-14 17:01N 60°02' E 026°38'1221.0
2018-May-14 16:27N 59°60' E 027°01'612.8
2018-May-14 15:59N 60°02' E 027°12'817.5
2018-May-14 15:30N 60°06' E 027°26'917.5
2018-May-14 15:00N 60°11' E 027°41'816.1
2018-May-14 14:30N 60°10' E 027°57'917.4
2018-May-14 14:00N 60°08' E 028°14'917.2
2018-May-14 13:30N 60°04' E 028°29'917.3
2018-May-14 13:00N 60°03' E 028°46'917.6
2018-May-14 12:30N 60°03' E 029°04'2113.1
2018-May-14 10:54N 59°59' E 029°45'4 9.2
2018-May-14 10:30N 59°57' E 029°52'511.1
2018-May-14 10:00N 59°55' E 030°02'4 8.0
2018-May-14 09:30N 59°53' E 030°09'3 5.5
2018-May-14 09:00N 59°55' E 030°14'0 0.4
2018-May-14 08:30N 59°55' E 030°14'0 0.0
2018-May-14 08:00N 59°55' E 030°14'0 0.0
2018-May-14 07:30N 59°55' E 030°14'0 0.0
2018-May-14 07:00N 59°55' E 030°14'0 0.0
2018-May-14 06:27N 59°55' E 030°14'0 0.0
2018-May-14 06:00N 59°55' E 030°14'0 0.0
2018-May-14 05:30N 59°55' E 030°14'0 0.0
2018-May-14 05:00N 59°55' E 030°14'0 0.0
2018-May-14 04:30N 59°55' E 030°14'0 0.0
2018-May-14 04:00N 59°55' E 030°14'0 0.0
2018-May-14 03:30N 59°55' E 030°14'0 0.0
2018-May-14 03:00N 59°55' E 030°14'0 0.0
2018-May-14 02:30N 59°55' E 030°14'0 0.0
2018-May-14 02:00N 59°55' E 030°14'0 0.0
2018-May-14 01:30N 59°55' E 030°14'0 0.0
2018-May-14 01:00N 59°55' E 030°14'0 0.0
2018-May-14 00:30N 59°55' E 030°14'0 0.0
2018-May-14 00:00N 59°55' E 030°14'0 0.0
2018-May-13 23:30N 59°55' E 030°14'0 0.0
2018-May-13 23:00N 59°55' E 030°14'0 0.0
2018-May-13 22:30N 59°55' E 030°14'0 0.0
2018-May-13 22:00N 59°55' E 030°14'0 0.0
2018-May-13 21:30N 59°55' E 030°14'0 0.0
2018-May-13 21:00N 59°55' E 030°14'0 0.0
2018-May-13 20:30N 59°55' E 030°14'0 0.0
2018-May-13 20:00N 59°55' E 030°14'0 0.0
2018-May-13 19:30N 59°55' E 030°14'0 0.0
2018-May-13 19:00N 59°55' E 030°14'0 0.0
2018-May-13 18:30N 59°55' E 030°14'0 0.0
2018-May-13 18:00N 59°55' E 030°14'0 0.0
2018-May-13 17:30N 59°55' E 030°14'0 0.0
2018-May-13 17:00N 59°55' E 030°14'0 0.0
2018-May-13 16:30N 59°55' E 030°14'0 0.0
2018-May-13 16:00N 59°55' E 030°14'0 0.0
2018-May-13 15:30N 59°55' E 030°14'0 0.0
2018-May-13 15:00N 59°55' E 030°14'0 0.0
2018-May-13 14:30N 59°55' E 030°14'0 0.0
2018-May-13 14:00N 59°55' E 030°14'0 0.0
2018-May-13 13:30N 59°55' E 030°14'0 0.0
2018-May-13 13:00N 59°55' E 030°14'0 0.0
2018-May-13 12:30N 59°55' E 030°14'0 0.0
2018-May-13 12:00N 59°55' E 030°14'0 0.0
2018-May-13 11:30N 59°55' E 030°14'0 0.0
2018-May-13 11:00N 59°55' E 030°14'0 0.0
2018-May-13 10:30N 59°55' E 030°14'0 0.0
2018-May-13 10:00N 59°55' E 030°14'0 0.0
2018-May-13 09:30N 59°55' E 030°14'0 0.0
2018-May-13 09:00N 59°55' E 030°14'0 0.0
2018-May-13 08:30N 59°55' E 030°14'0 0.0
2018-May-13 08:00N 59°55' E 030°14'0 0.0
2018-May-13 07:30N 59°55' E 030°14'0 0.0
2018-May-13 06:57N 59°55' E 030°14'0 0.0
2018-May-13 06:30N 59°55' E 030°14'0 0.0
2018-May-13 06:00N 59°55' E 030°14'0 0.0
2018-May-13 05:30N 59°55' E 030°14'0 0.0
2018-May-13 05:00N 59°55' E 030°14'0 0.0
2018-May-13 04:30N 59°55' E 030°14'0 0.0
2018-May-13 04:00N 59°55' E 030°14'0 0.0
2018-May-13 03:27N 59°55' E 030°14'0 0.0
2018-May-13 02:57N 59°55' E 030°14'0 0.0
2018-May-13 02:30N 59°55' E 030°14'0 0.0
2018-May-13 02:00N 59°55' E 030°14'0 0.0
2018-May-13 01:30N 59°55' E 030°14'0 0.0
2018-May-13 01:00N 59°55' E 030°14'0 0.0
2018-May-13 00:30N 59°55' E 030°14'0 0.0
2018-May-13 00:00N 59°55' E 030°14'0 0.0
2018-May-12 23:30N 59°55' E 030°14'0 0.0
2018-May-12 23:00N 59°55' E 030°14'0 0.0
2018-May-12 22:30N 59°55' E 030°14'0 0.0
2018-May-12 22:00N 59°55' E 030°14'0 0.0
2018-May-12 21:30N 59°55' E 030°14'0 0.0
2018-May-12 20:57N 59°55' E 030°14'0 0.0
2018-May-12 20:30N 59°55' E 030°14'0 0.0
2018-May-12 19:59N 59°55' E 030°14'0 0.0
2018-May-12 19:30N 59°55' E 030°14'0 0.0
2018-May-12 19:00N 59°55' E 030°14'0 0.0
2018-May-12 18:29N 59°55' E 030°14'0 0.0
2018-May-12 17:59N 59°55' E 030°14'0 0.0
2018-May-12 17:29N 59°55' E 030°14'0 0.0
2018-May-12 16:53N 59°55' E 030°14'0 0.0
2018-May-12 16:29N 59°55' E 030°14'0 0.0
2018-May-12 15:56N 59°55' E 030°14'0 0.0
2018-May-12 15:29N 59°55' E 030°14'0 0.0
2018-May-12 14:59N 59°55' E 030°14'0 0.0
2018-May-12 14:29N 59°55' E 030°14'0 0.0
2018-May-12 13:56N 59°55' E 030°14'0 0.0
2018-May-12 13:29N 59°55' E 030°14'0 0.0
2018-May-12 12:59N 59°55' E 030°14'0 0.0
2018-May-12 12:29N 59°55' E 030°14'0 0.0
2018-May-12 11:59N 59°55' E 030°14'0 0.0
2018-May-12 11:30N 59°55' E 030°14'0 0.0
2018-May-12 10:59N 59°55' E 030°14'0 0.0
2018-May-12 10:29N 59°55' E 030°14'0 0.0
2018-May-12 09:59N 59°55' E 030°14'0 0.0
2018-May-12 09:29N 59°55' E 030°14'0 0.0
2018-May-12 08:59N 59°55' E 030°14'0 0.0
2018-May-12 08:29N 59°55' E 030°14'0 0.0
2018-May-12 07:59N 59°55' E 030°14'0 0.0
2018-May-12 07:29N 59°55' E 030°14'0 0.0
2018-May-12 06:59N 59°55' E 030°14'0 0.0
2018-May-12 06:29N 59°55' E 030°14'0 0.0
2018-May-12 05:57N 59°55' E 030°14'0 0.0
2018-May-12 05:23N 59°55' E 030°14'0 0.0
2018-May-12 05:00N 59°55' E 030°14'0 0.0
2018-May-12 04:29N 59°55' E 030°14'0 0.0
2018-May-12 03:59N 59°55' E 030°14'0 0.0
2018-May-12 03:20N 59°55' E 030°14'0 0.0
2018-May-12 02:59N 59°55' E 030°14'0 0.0
2018-May-12 02:29N 59°55' E 030°14'0 0.0
2018-May-12 02:00N 59°55' E 030°14'0 0.0
2018-May-12 01:30N 59°55' E 030°14'0 0.0
2018-May-12 00:59N 59°55' E 030°14'0 0.0
2018-May-12 00:29N 59°55' E 030°14'0 0.0
2018-May-11 23:59N 59°55' E 030°14'0 0.0
2018-May-11 23:29N 59°55' E 030°14'0 0.0
2018-May-11 22:56N 59°55' E 030°14'0 0.0
2018-May-11 22:26N 59°55' E 030°14'0 0.0
2018-May-11 22:00N 59°55' E 030°14'0 0.0
2018-May-11 21:29N 59°55' E 030°14'0 0.0
2018-May-11 20:59N 59°55' E 030°14'0 0.0
2018-May-11 20:29N 59°55' E 030°14'0 0.0
2018-May-11 19:59N 59°55' E 030°14'0 0.0
2018-May-11 19:29N 59°55' E 030°14'0 0.0
2018-May-11 18:59N 59°55' E 030°14'0 0.0
2018-May-11 18:26N 59°55' E 030°14'0 0.0
2018-May-11 17:59N 59°55' E 030°14'0 0.0
2018-May-11 17:29N 59°55' E 030°14'0 0.0
2018-May-11 16:59N 59°55' E 030°14'0 0.0
2018-May-11 15:47N 59°55' E 030°14'0 0.0
2018-May-11 15:08N 59°55' E 030°14'0 0.0
2018-May-11 14:59N 59°55' E 030°14'0 0.0
2018-May-11 14:23N 59°55' E 030°14'0 0.0
2018-May-11 13:56N 59°55' E 030°14'0 0.0
2018-May-11 13:29N 59°55' E 030°14'0 0.0
2018-May-11 12:56N 59°55' E 030°14'0 0.0
2018-May-11 12:29N 59°55' E 030°14'0 0.0
2018-May-11 11:47N 59°55' E 030°14'0 0.0
2018-May-11 11:26N 59°55' E 030°14'0 0.0
2018-May-11 10:56N 59°55' E 030°14'0 0.0
2018-May-11 10:26N 59°55' E 030°14'0 0.0
2018-May-11 09:59N 59°55' E 030°14'0 0.0
2018-May-11 09:26N 59°55' E 030°14'0 0.0
2018-May-11 08:56N 59°55' E 030°14'0 0.0
2018-May-11 08:23N 59°55' E 030°14'0 0.0
2018-May-11 07:59N 59°55' E 030°14'0 0.0
2018-May-11 07:29N 59°55' E 030°14'0 0.0
2018-May-11 06:41N 59°55' E 030°14'0 0.0
2018-May-11 06:29N 59°55' E 030°14'0 0.0
2018-May-11 05:52N 59°55' E 030°14'0 0.0
2018-May-11 05:28N 59°55' E 030°14'0 0.0
2018-May-11 04:58N 59°55' E 030°14'0 0.0
2018-May-11 04:28N 59°55' E 030°14'0 0.0
2018-May-11 03:58N 59°55' E 030°14'0 0.0
2018-May-11 03:25N 59°55' E 030°14'0 0.0
2018-May-11 02:58N 59°55' E 030°14'0 0.0
2018-May-11 02:28N 59°55' E 030°14'0 0.0
2018-May-11 01:58N 59°55' E 030°14'0 0.0
2018-May-11 01:28N 59°55' E 030°14'0 0.0
2018-May-11 00:58N 59°55' E 030°14'0 0.0
2018-May-11 00:28N 59°55' E 030°14'0 0.0
2018-May-10 23:58N 59°55' E 030°14'0 0.0
2018-May-10 23:25N 59°55' E 030°14'0 0.0
2018-May-10 22:58N 59°55' E 030°14'0 0.0
2018-May-10 22:28N 59°55' E 030°14'0 0.0
2018-May-10 21:58N 59°55' E 030°14'0 0.0
2018-May-10 21:28N 59°55' E 030°14'0 0.0
2018-May-10 20:58N 59°55' E 030°14'0 0.0
2018-May-10 20:28N 59°55' E 030°14'0 0.0
2018-May-10 19:52N 59°55' E 030°14'0 0.0
2018-May-10 19:28N 59°55' E 030°14'0 0.0
2018-May-10 18:58N 59°55' E 030°14'0 0.0
2018-May-10 18:28N 59°55' E 030°14'0 0.0
2018-May-10 17:58N 59°55' E 030°14'0 0.0
2018-May-10 17:28N 59°55' E 030°14'0 0.0
2018-May-10 16:47N 59°55' E 030°14'0 0.0
2018-May-10 16:22N 59°55' E 030°14'0 0.0
2018-May-10 15:55N 59°55' E 030°14'0 0.0
2018-May-10 15:25N 59°55' E 030°14'0 0.0
2018-May-10 14:52N 59°55' E 030°14'0 0.0
2018-May-10 14:25N 59°55' E 030°14'0 0.0
2018-May-10 13:55N 59°55' E 030°14'0 0.0
2018-May-10 13:28N 59°55' E 030°14'0 0.0
2018-May-10 12:58N 59°55' E 030°14'0 0.0
2018-May-10 12:28N 59°55' E 030°14'0 0.0
2018-May-10 11:58N 59°55' E 030°14'0 0.0
2018-May-10 11:28N 59°55' E 030°14'0 0.0
2018-May-10 10:58N 59°55' E 030°14'0 0.0
2018-May-10 10:28N 59°55' E 030°14'0 0.0
2018-May-10 09:58N 59°55' E 030°14'0 0.0
2018-May-10 09:28N 59°55' E 030°14'0 0.0
2018-May-10 08:58N 59°55' E 030°14'0 0.0
2018-May-10 08:28N 59°55' E 030°14'0 0.0
2018-May-10 07:55N 59°55' E 030°14'0 0.0
2018-May-10 07:28N 59°55' E 030°14'0 0.0
2018-May-10 06:58N 59°55' E 030°14'0 0.0
2018-May-10 06:28N 59°55' E 030°14'0 0.0
2018-May-10 05:58N 59°55' E 030°14'0 0.0
2018-May-10 05:28N 59°55' E 030°14'0 0.0
2018-May-10 04:58N 59°55' E 030°14'0 0.0
2018-May-10 04:28N 59°55' E 030°14'0 0.0
2018-May-10 03:58N 59°55' E 030°14'0 0.0
2018-May-10 03:28N 59°55' E 030°14'0 0.0
2018-May-10 02:58N 59°55' E 030°14'0 0.0
2018-May-10 02:28N 59°55' E 030°14'0 0.0
2018-May-10 01:58N 59°55' E 030°14'0 0.0
2018-May-10 01:28N 59°55' E 030°14'0 0.0
2018-May-10 01:01N 59°55' E 030°14'0 0.0
2018-May-10 00:28N 59°55' E 030°14'0 0.0
2018-May-10 00:00N 59°55' E 030°14'0 0.0
2018-May-09 23:28N 59°55' E 030°14'0 0.0
2018-May-09 22:58N 59°55' E 030°14'0 0.0
2018-May-09 22:28N 59°55' E 030°14'0 0.0
2018-May-09 21:58N 59°55' E 030°14'0 0.0
2018-May-09 21:28N 59°55' E 030°14'0 0.0
2018-May-09 21:00N 59°55' E 030°14'0 0.0
2018-May-09 20:30N 59°55' E 030°14'0 0.0
2018-May-09 20:00N 59°55' E 030°14'0 0.0
2018-May-09 19:28N 59°55' E 030°14'0 0.0
2018-May-09 19:00N 59°55' E 030°14'0 0.0
2018-May-09 18:30N 59°55' E 030°14'0 0.0
2018-May-09 18:00N 59°55' E 030°14'0 0.0
2018-May-09 17:30N 59°55' E 030°14'0 0.0
2018-May-09 17:00N 59°55' E 030°14'0 0.0
2018-May-09 16:27N 59°55' E 030°14'0 0.0
2018-May-09 16:00N 59°55' E 030°14'0 0.0
2018-May-09 15:30N 59°55' E 030°14'0 0.0
2018-May-09 15:00N 59°55' E 030°14'0 0.0
2018-May-09 14:30N 59°55' E 030°14'0 0.0
2018-May-09 14:00N 59°55' E 030°14'0 0.0
2018-May-09 13:30N 59°55' E 030°14'0 0.0
2018-May-09 13:00N 59°55' E 030°14'0 0.0
2018-May-09 12:30N 59°55' E 030°14'0 0.0
2018-May-09 12:00N 59°55' E 030°14'0 0.0
2018-May-09 11:30N 59°55' E 030°14'0 0.0
2018-May-09 11:00N 59°55' E 030°14'0 0.0
2018-May-09 10:30N 59°55' E 030°14'0 0.0
2018-May-09 10:00N 59°55' E 030°14'0 0.0
2018-May-09 09:30N 59°55' E 030°14'0 0.0
2018-May-09 09:00N 59°55' E 030°14'0 0.0
2018-May-09 08:30N 59°55' E 030°14'0 0.0
2018-May-09 08:00N 59°55' E 030°14'0 0.0
2018-May-09 07:30N 59°55' E 030°14'0 0.0
2018-May-09 07:00N 59°55' E 030°14'0 0.0
2018-May-09 06:30N 59°55' E 030°14'0 0.0
2018-May-09 06:00N 59°55' E 030°14'0 0.0
2018-May-09 05:30N 59°55' E 030°14'0 0.0
2018-May-09 05:00N 59°55' E 030°14'0 0.0
2018-May-09 04:30N 59°55' E 030°14'0 0.0
2018-May-09 04:00N 59°55' E 030°14'0 0.3
2018-May-09 03:30N 59°55' E 030°14'2 4.0
2018-May-09 03:00N 59°53' E 030°12'3 6.2
2018-May-09 02:30N 59°54' E 030°06'510.0
2018-May-09 02:00N 59°56' E 029°57'510.7
2018-May-09 01:30N 59°58' E 029°47'510.8
2018-May-09 01:00N 60°00' E 029°37'5 8.9
2018-May-09 00:27N 60°02' E 029°28'1 3.1
2018-May-09 00:00N 60°02' E 029°25'0 0.3
2018-May-08 23:27N 60°02' E 029°24'0 0.0
2018-May-08 22:57N 60°02' E 029°24'0 0.1
2018-May-08 22:30N 60°02' E 029°24'0 0.1
2018-May-08 22:00N 60°02' E 029°25'0 0.0
2018-May-08 16:24N 60°02' E 029°25'0 0.0
2018-May-08 15:57N 60°02' E 029°25'  
Track history (hours):
 
Tides and Currents Weather Stations Pressure Air Temp Water Temp Dewpoint Dewpoint Depression Visibility Wind Speed Wind Dir Waves Ship Positions

Albemarle Island

Last reported at 2018-May-18 01:03 UTC. Time now 2018-May-22 11:47 UTC.
Position N 58°45' W 003°43'.

Type: Cargo ship. MMSI: 308511000.

Date/timePositionNaut miles runAvg speedWind from/ knotsBaromVisibWave heightAir tempDewpointWater temp
2018-May-18 01:03N 58°45' W 003°43'216.5
2018-May-18 00:56N 58°45' W 003°39'916.6
2018-May-18 00:24N 58°44' W 003°23'615.4
2018-May-18 00:00N 58°44' W 003°11'713.9
2018-May-17 23:30N 58°42' W 002°58'816.0
2018-May-17 23:00N 58°42' W 002°43'28714.7
2018-May-17 03:27N 57°36' E 006°07'1015.3
2018-May-17 02:49N 57°36' E 006°25'515.7
2018-May-17 02:29N 57°37' E 006°34'715.5
2018-May-17 02:00N 57°37' E 006°48'816.6
2018-May-17 01:30N 57°37' E 007°04'4117.1
2018-May-16 23:07N 57°40' E 008°20'217.4
2018-May-16 23:00N 57°40' E 008°23'917.1
2018-May-16 22:30N 57°42' E 008°39'917.3
2018-May-16 22:00N 57°44' E 008°55'816.8
2018-May-16 21:30N 57°46' E 009°11'816.8
2018-May-16 21:00N 57°47' E 009°26'816.7
2018-May-16 20:30N 57°49' E 009°41'816.9
2018-May-16 20:00N 57°49' E 009°57'816.3
2018-May-16 19:30N 57°49' E 010°12'816.3
2018-May-16 19:00N 57°49' E 010°28'816.1
2018-May-16 18:30N 57°49' E 010°43'815.8
2018-May-16 18:00N 57°44' E 010°55'917.3
2018-May-16 17:30N 57°38' E 011°06'917.1
2018-May-16 17:00N 57°33' E 011°18'816.2
2018-May-16 16:30N 57°26' E 011°28'917.3
2018-May-16 16:00N 57°18' E 011°33'917.2
2018-May-16 15:30N 57°10' E 011°38'917.0
2018-May-16 15:00N 57°02' E 011°44'817.0
2018-May-16 14:30N 56°54' E 011°49'917.1
2018-May-16 14:00N 56°46' E 011°54'2016.9
2018-May-16 12:49N 56°28' E 011°36'717.2
2018-May-16 12:25N 56°22' E 011°29'717.5
2018-May-16 12:00N 56°16' E 011°24'916.9
2018-May-16 11:30N 56°09' E 011°15'2417.1
2018-May-16 10:07N 55°50' E 010°50'1116.9
2018-May-16 09:29N 55°39' E 010°48'1117.4
2018-May-16 08:52N 55°29' E 010°54'617.6
2018-May-16 08:30N 55°24' E 011°01'917.1
2018-May-16 08:00N 55°16' E 011°05'816.5
2018-May-16 07:30N 55°08' E 011°03'917.3
2018-May-16 07:00N 54°59' E 011°02'816.7
2018-May-16 06:30N 54°52' E 010°53'917.6
2018-May-16 06:00N 54°43' E 010°53'817.0
2018-May-16 05:30N 54°38' E 011°04'917.8
2018-May-16 05:00N 54°34' E 011°18'917.5
2018-May-16 04:30N 54°30' E 011°31'917.5
2018-May-16 04:00N 54°26' E 011°45'917.5
2018-May-16 03:30N 54°26' E 012°00'815.6
2018-May-16 03:00N 54°29' E 012°13'917.2
2018-May-16 02:30N 54°37' E 012°17'917.5
2018-May-16 02:00N 54°42' E 012°29'917.4
2018-May-16 01:30N 54°47' E 012°42'4117.4
2018-May-15 23:09N 55°00' E 013°49'317.2
2018-May-15 23:00N 55°01' E 013°53'816.8
2018-May-15 22:30N 55°05' E 014°06'1017.0
2018-May-15 21:54N 55°13' E 014°16'717.4
2018-May-15 21:30N 55°18' E 014°25'917.7
2018-May-15 21:00N 55°25' E 014°34'917.2
2018-May-15 20:30N 55°30' E 014°47'917.4
2018-May-15 20:00N 55°34' E 015°01'917.2
2018-May-15 19:30N 55°38' E 015°15'917.3
2018-May-15 19:00N 55°42' E 015°28'917.3
2018-May-15 18:27N 55°46' E 015°43'817.2
2018-May-15 18:00N 55°50' E 015°54'27117.3
2018-May-15 02:21N 59°09' E 021°38'717.6
2018-May-15 01:58N 59°13' E 021°48'2717.5
2018-May-15 00:25N 59°31' E 022°29'1417.5
2018-May-14 23:35N 59°34' E 022°56'117.7
2018-May-14 23:30N 59°35' E 022°59'917.7
2018-May-14 23:00N 59°37' E 023°16'917.6
2018-May-14 22:30N 59°40' E 023°33'917.6
2018-May-14 22:00N 59°42' E 023°50'917.7
2018-May-14 21:29N 59°45' E 024°07'817.7
2018-May-14 21:01N 59°48' E 024°23'917.7
2018-May-14 20:30N 59°50' E 024°40'816.3
2018-May-14 20:00N 59°50' E 024°56'917.5
2018-May-14 19:30N 59°52' E 025°13'917.4
2018-May-14 19:00N 59°54' E 025°30'2219.1
2018-May-14 17:50N 59°58' E 026°14'411.9
2018-May-14 17:30N 59°60' E 026°21'817.4
2018-May-14 17:01N 60°02' E 026°38'1221.0
2018-May-14 16:27N 59°60' E 027°01'612.8
2018-May-14 15:59N 60°02' E 027°12'817.5
2018-May-14 15:30N 60°06' E 027°26'917.5
2018-May-14 15:00N 60°11' E 027°41'816.1
2018-May-14 14:30N 60°10' E 027°57'917.4
2018-May-14 14:00N 60°08' E 028°14'917.2
2018-May-14 13:30N 60°04' E 028°29'917.3
2018-May-14 13:00N 60°03' E 028°46'917.6
2018-May-14 12:30N 60°03' E 029°04'2113.1
2018-May-14 10:54N 59°59' E 029°45'4 9.2
2018-May-14 10:30N 59°57' E 029°52'511.1
2018-May-14 10:00N 59°55' E 030°02'4 8.0
2018-May-14 09:30N 59°53' E 030°09'3 5.5
2018-May-14 09:00N 59°55' E 030°14'0 0.4
2018-May-14 08:30N 59°55' E 030°14'0 0.0
2018-May-14 08:00N 59°55' E 030°14'0 0.0
2018-May-14 07:30N 59°55' E 030°14'0 0.0
2018-May-14 07:00N 59°55' E 030°14'0 0.0
2018-May-14 06:27N 59°55' E 030°14'0 0.0
2018-May-14 06:00N 59°55' E 030°14'0 0.0
2018-May-14 05:30N 59°55' E 030°14'0 0.0
2018-May-14 05:00N 59°55' E 030°14'0 0.0
2018-May-14 04:30N 59°55' E 030°14'0 0.0
2018-May-14 04:00N 59°55' E 030°14'0 0.0
2018-May-14 03:30N 59°55' E 030°14'0 0.0
2018-May-14 03:00N 59°55' E 030°14'0 0.0
2018-May-14 02:30N 59°55' E 030°14'0 0.0
2018-May-14 02:00N 59°55' E 030°14'0 0.0
2018-May-14 01:30N 59°55' E 030°14'0 0.0
2018-May-14 01:00N 59°55' E 030°14'0 0.0
2018-May-14 00:30N 59°55' E 030°14'0 0.0
2018-May-14 00:00N 59°55' E 030°14'0 0.0
2018-May-13 23:30N 59°55' E 030°14'0 0.0
2018-May-13 23:00N 59°55' E 030°14'0 0.0
2018-May-13 22:30N 59°55' E 030°14'0 0.0
2018-May-13 22:00N 59°55' E 030°14'0 0.0
2018-May-13 21:30N 59°55' E 030°14'0 0.0
2018-May-13 21:00N 59°55' E 030°14'0 0.0
2018-May-13 20:30N 59°55' E 030°14'0 0.0
2018-May-13 20:00N 59°55' E 030°14'0 0.0
2018-May-13 19:30N 59°55' E 030°14'0 0.0
2018-May-13 19:00N 59°55' E 030°14'0 0.0
2018-May-13 18:30N 59°55' E 030°14'0 0.0
2018-May-13 18:00N 59°55' E 030°14'0 0.0
2018-May-13 17:30N 59°55' E 030°14'0 0.0
2018-May-13 17:00N 59°55' E 030°14'0 0.0
2018-May-13 16:30N 59°55' E 030°14'0 0.0
2018-May-13 16:00N 59°55' E 030°14'0 0.0
2018-May-13 15:30N 59°55' E 030°14'0 0.0
2018-May-13 15:00N 59°55' E 030°14'0 0.0
2018-May-13 14:30N 59°55' E 030°14'0 0.0
2018-May-13 14:00N 59°55' E 030°14'0 0.0
2018-May-13 13:30N 59°55' E 030°14'0 0.0
2018-May-13 13:00N 59°55' E 030°14'0 0.0
2018-May-13 12:30N 59°55' E 030°14'0 0.0
2018-May-13 12:00N 59°55' E 030°14'0 0.0
2018-May-13 11:30N 59°55' E 030°14'0 0.0
2018-May-13 11:00N 59°55' E 030°14'0 0.0
2018-May-13 10:30N 59°55' E 030°14'0 0.0
2018-May-13 10:00N 59°55' E 030°14'0 0.0
2018-May-13 09:30N 59°55' E 030°14'0 0.0
2018-May-13 09:00N 59°55' E 030°14'0 0.0
2018-May-13 08:30N 59°55' E 030°14'0 0.0
2018-May-13 08:00N 59°55' E 030°14'0 0.0
2018-May-13 07:30N 59°55' E 030°14'0 0.0
2018-May-13 06:57N 59°55' E 030°14'0 0.0
2018-May-13 06:30N 59°55' E 030°14'0 0.0
2018-May-13 06:00N 59°55' E 030°14'0 0.0
2018-May-13 05:30N 59°55' E 030°14'0 0.0
2018-May-13 05:00N 59°55' E 030°14'0 0.0
2018-May-13 04:30N 59°55' E 030°14'0 0.0
2018-May-13 04:00N 59°55' E 030°14'0 0.0
2018-May-13 03:27N 59°55' E 030°14'0 0.0
2018-May-13 02:57N 59°55' E 030°14'0 0.0
2018-May-13 02:30N 59°55' E 030°14'0 0.0
2018-May-13 02:00N 59°55' E 030°14'0 0.0
2018-May-13 01:30N 59°55' E 030°14'0 0.0
2018-May-13 01:00N 59°55' E 030°14'0 0.0
2018-May-13 00:30N 59°55' E 030°14'0 0.0
2018-May-13 00:00N 59°55' E 030°14'0 0.0
2018-May-12 23:30N 59°55' E 030°14'0 0.0
2018-May-12 23:00N 59°55' E 030°14'0 0.0
2018-May-12 22:30N 59°55' E 030°14'0 0.0
2018-May-12 22:00N 59°55' E 030°14'0 0.0
2018-May-12 21:30N 59°55' E 030°14'0 0.0
2018-May-12 20:57N 59°55' E 030°14'0 0.0
2018-May-12 20:30N 59°55' E 030°14'0 0.0
2018-May-12 19:59N 59°55' E 030°14'0 0.0
2018-May-12 19:30N 59°55' E 030°14'0 0.0
2018-May-12 19:00N 59°55' E 030°14'0 0.0
2018-May-12 18:29N 59°55' E 030°14'0 0.0
2018-May-12 17:59N 59°55' E 030°14'0 0.0
2018-May-12 17:29N 59°55' E 030°14'0 0.0
2018-May-12 16:53N 59°55' E 030°14'0 0.0
2018-May-12 16:29N 59°55' E 030°14'0 0.0
2018-May-12 15:56N 59°55' E 030°14'0 0.0
2018-May-12 15:29N 59°55' E 030°14'0 0.0
2018-May-12 14:59N 59°55' E 030°14'0 0.0
2018-May-12 14:29N 59°55' E 030°14'0 0.0
2018-May-12 13:56N 59°55' E 030°14'0 0.0
2018-May-12 13:29N 59°55' E 030°14'0 0.0
2018-May-12 12:59N 59°55' E 030°14'0 0.0
2018-May-12 12:29N 59°55' E 030°14'0 0.0
2018-May-12 11:59N 59°55' E 030°14'0 0.0
2018-May-12 11:30N 59°55' E 030°14'0 0.0
2018-May-12 10:59N 59°55' E 030°14'0 0.0
2018-May-12 10:29N 59°55' E 030°14'0 0.0
2018-May-12 09:59N 59°55' E 030°14'0 0.0
2018-May-12 09:29N 59°55' E 030°14'0 0.0
2018-May-12 08:59N 59°55' E 030°14'0 0.0
2018-May-12 08:29N 59°55' E 030°14'0 0.0
2018-May-12 07:59N 59°55' E 030°14'0 0.0
2018-May-12 07:29N 59°55' E 030°14'0 0.0
2018-May-12 06:59N 59°55' E 030°14'0 0.0
2018-May-12 06:29N 59°55' E 030°14'0 0.0
2018-May-12 05:57N 59°55' E 030°14'0 0.0
2018-May-12 05:23N 59°55' E 030°14'0 0.0
2018-May-12 05:00N 59°55' E 030°14'0 0.0
2018-May-12 04:29N 59°55' E 030°14'0 0.0
2018-May-12 03:59N 59°55' E 030°14'0 0.0
2018-May-12 03:20N 59°55' E 030°14'0 0.0
2018-May-12 02:59N 59°55' E 030°14'0 0.0
2018-May-12 02:29N 59°55' E 030°14'0 0.0
2018-May-12 02:00N 59°55' E 030°14'0 0.0
2018-May-12 01:30N 59°55' E 030°14'0 0.0
2018-May-12 00:59N 59°55' E 030°14'0 0.0
2018-May-12 00:29N 59°55' E 030°14'0 0.0
2018-May-11 23:59N 59°55' E 030°14'0 0.0
2018-May-11 23:29N 59°55' E 030°14'0 0.0
2018-May-11 22:56N 59°55' E 030°14'0 0.0
2018-May-11 22:26N 59°55' E 030°14'0 0.0
2018-May-11 22:00N 59°55' E 030°14'0 0.0
2018-May-11 21:29N 59°55' E 030°14'0 0.0
2018-May-11 20:59N 59°55' E 030°14'0 0.0
2018-May-11 20:29N 59°55' E 030°14'0 0.0
2018-May-11 19:59N 59°55' E 030°14'0 0.0
2018-May-11 19:29N 59°55' E 030°14'0 0.0
2018-May-11 18:59N 59°55' E 030°14'0 0.0
2018-May-11 18:26N 59°55' E 030°14'0 0.0
2018-May-11 17:59N 59°55' E 030°14'0 0.0
2018-May-11 17:29N 59°55' E 030°14'0 0.0
2018-May-11 16:59N 59°55' E 030°14'0 0.0
2018-May-11 15:47N 59°55' E 030°14'0 0.0
2018-May-11 15:08N 59°55' E 030°14'0 0.0
2018-May-11 14:59N 59°55' E 030°14'0 0.0
2018-May-11 14:23N 59°55' E 030°14'0 0.0
2018-May-11 13:56N 59°55' E 030°14'0 0.0
2018-May-11 13:29N 59°55' E 030°14'0 0.0
2018-May-11 12:56N 59°55' E 030°14'0 0.0
2018-May-11 12:29N 59°55' E 030°14'0 0.0
2018-May-11 11:47N 59°55' E 030°14'0 0.0
2018-May-11 11:26N 59°55' E 030°14'0 0.0
2018-May-11 10:56N 59°55' E 030°14'0 0.0
2018-May-11 10:26N 59°55' E 030°14'0 0.0
2018-May-11 09:59N 59°55' E 030°14'0 0.0
2018-May-11 09:26N 59°55' E 030°14'0 0.0
2018-May-11 08:56N 59°55' E 030°14'0 0.0
2018-May-11 08:23N 59°55' E 030°14'0 0.0
2018-May-11 07:59N 59°55' E 030°14'0 0.0
2018-May-11 07:29N 59°55' E 030°14'0 0.0
2018-May-11 06:41N 59°55' E 030°14'0 0.0
2018-May-11 06:29N 59°55' E 030°14'0 0.0
2018-May-11 05:52N 59°55' E 030°14'0 0.0
2018-May-11 05:28N 59°55' E 030°14'0 0.0
2018-May-11 04:58N 59°55' E 030°14'0 0.0
2018-May-11 04:28N 59°55' E 030°14'0 0.0
2018-May-11 03:58N 59°55' E 030°14'0 0.0
2018-May-11 03:25N 59°55' E 030°14'0 0.0
2018-May-11 02:58N 59°55' E 030°14'0 0.0
2018-May-11 02:28N 59°55' E 030°14'0 0.0
2018-May-11 01:58N 59°55' E 030°14'0 0.0
2018-May-11 01:28N 59°55' E 030°14'0 0.0
2018-May-11 00:58N 59°55' E 030°14'0 0.0
2018-May-11 00:28N 59°55' E 030°14'0 0.0
2018-May-10 23:58N 59°55' E 030°14'0 0.0
2018-May-10 23:25N 59°55' E 030°14'0 0.0
2018-May-10 22:58N 59°55' E 030°14'0 0.0
2018-May-10 22:28N 59°55' E 030°14'0 0.0
2018-May-10 21:58N 59°55' E 030°14'0 0.0
2018-May-10 21:28N 59°55' E 030°14'0 0.0
2018-May-10 20:58N 59°55' E 030°14'0 0.0
2018-May-10 20:28N 59°55' E 030°14'0 0.0
2018-May-10 19:52N 59°55' E 030°14'0 0.0
2018-May-10 19:28N 59°55' E 030°14'0 0.0
2018-May-10 18:58N 59°55' E 030°14'0 0.0
2018-May-10 18:28N 59°55' E 030°14'0 0.0
2018-May-10 17:58N 59°55' E 030°14'0 0.0
2018-May-10 17:28N 59°55' E 030°14'0 0.0
2018-May-10 16:47N 59°55' E 030°14'0 0.0
2018-May-10 16:22N 59°55' E 030°14'0 0.0
2018-May-10 15:55N 59°55' E 030°14'0 0.0
2018-May-10 15:25N 59°55' E 030°14'0 0.0
2018-May-10 14:52N 59°55' E 030°14'0 0.0
2018-May-10 14:25N 59°55' E 030°14'0 0.0
2018-May-10 13:55N 59°55' E 030°14'0 0.0
2018-May-10 13:28N 59°55' E 030°14'0 0.0
2018-May-10 12:58N 59°55' E 030°14'0 0.0
2018-May-10 12:28N 59°55' E 030°14'0 0.0
2018-May-10 11:58N 59°55' E 030°14'0 0.0
2018-May-10 11:28N 59°55' E 030°14'0 0.0
2018-May-10 10:58N 59°55' E 030°14'0 0.0
2018-May-10 10:28N 59°55' E 030°14'0 0.0
2018-May-10 09:58N 59°55' E 030°14'0 0.0
2018-May-10 09:28N 59°55' E 030°14'0 0.0
2018-May-10 08:58N 59°55' E 030°14'0 0.0
2018-May-10 08:28N 59°55' E 030°14'0 0.0
2018-May-10 07:55N 59°55' E 030°14'0 0.0
2018-May-10 07:28N 59°55' E 030°14'0 0.0
2018-May-10 06:58N 59°55' E 030°14'0 0.0
2018-May-10 06:28N 59°55' E 030°14'0 0.0
2018-May-10 05:58N 59°55' E 030°14'0 0.0
2018-May-10 05:28N 59°55' E 030°14'0 0.0
2018-May-10 04:58N 59°55' E 030°14'0 0.0
2018-May-10 04:28N 59°55' E 030°14'0 0.0
2018-May-10 03:58N 59°55' E 030°14'0 0.0
2018-May-10 03:28N 59°55' E 030°14'0 0.0
2018-May-10 02:58N 59°55' E 030°14'0 0.0
2018-May-10 02:28N 59°55' E 030°14'0 0.0
2018-May-10 01:58N 59°55' E 030°14'0 0.0
2018-May-10 01:28N 59°55' E 030°14'0 0.0
2018-May-10 01:01N 59°55' E 030°14'0 0.0
2018-May-10 00:28N 59°55' E 030°14'0 0.0
2018-May-10 00:00N 59°55' E 030°14'0 0.0
2018-May-09 23:28N 59°55' E 030°14'0 0.0
2018-May-09 22:58N 59°55' E 030°14'0 0.0
2018-May-09 22:28N 59°55' E 030°14'0 0.0
2018-May-09 21:58N 59°55' E 030°14'0 0.0
2018-May-09 21:28N 59°55' E 030°14'0 0.0
2018-May-09 21:00N 59°55' E 030°14'0 0.0
2018-May-09 20:30N 59°55' E 030°14'0 0.0
2018-May-09 20:00N 59°55' E 030°14'0 0.0
2018-May-09 19:28N 59°55' E 030°14'0 0.0
2018-May-09 19:00N 59°55' E 030°14'0 0.0
2018-May-09 18:30N 59°55' E 030°14'0 0.0
2018-May-09 18:00N 59°55' E 030°14'0 0.0
2018-May-09 17:30N 59°55' E 030°14'0 0.0
2018-May-09 17:00N 59°55' E 030°14'0 0.0
2018-May-09 16:27N 59°55' E 030°14'0 0.0
2018-May-09 16:00N 59°55' E 030°14'0 0.0
2018-May-09 15:30N 59°55' E 030°14'0 0.0
2018-May-09 15:00N 59°55' E 030°14'0 0.0
2018-May-09 14:30N 59°55' E 030°14'0 0.0
2018-May-09 14:00N 59°55' E 030°14'0 0.0
2018-May-09 13:30N 59°55' E 030°14'0 0.0
2018-May-09 13:00N 59°55' E 030°14'0 0.0
2018-May-09 12:30N 59°55' E 030°14'0 0.0
2018-May-09 12:00N 59°55' E 030°14'0 0.0
2018-May-09 11:30N 59°55' E 030°14'0 0.0
2018-May-09 11:00N 59°55' E 030°14'0 0.0
2018-May-09 10:30N 59°55' E 030°14'0 0.0
2018-May-09 10:00N 59°55' E 030°14'0 0.0
2018-May-09 09:30N 59°55' E 030°14'0 0.0
2018-May-09 09:00N 59°55' E 030°14'0 0.0
2018-May-09 08:30N 59°55' E 030°14'0 0.0
2018-May-09 08:00N 59°55' E 030°14'0 0.0
2018-May-09 07:30N 59°55' E 030°14'0 0.0
2018-May-09 07:00N 59°55' E 030°14'0 0.0
2018-May-09 06:30N 59°55' E 030°14'0 0.0
2018-May-09 06:00N 59°55' E 030°14'0 0.0
2018-May-09 05:30N 59°55' E 030°14'0 0.0
2018-May-09 05:00N 59°55' E 030°14'0 0.0
2018-May-09 04:30N 59°55' E 030°14'0 0.0
2018-May-09 04:00N 59°55' E 030°14'0 0.3
2018-May-09 03:30N 59°55' E 030°14'2 4.0
2018-May-09 03:00N 59°53' E 030°12'3 6.2
2018-May-09 02:30N 59°54' E 030°06'510.0
2018-May-09 02:00N 59°56' E 029°57'510.7
2018-May-09 01:30N 59°58' E 029°47'510.8
2018-May-09 01:00N 60°00' E 029°37'5 8.9
2018-May-09 00:27N 60°02' E 029°28'1 3.1
2018-May-09 00:00N 60°02' E 029°25'0 0.3
2018-May-08 23:27N 60°02' E 029°24'0 0.0
2018-May-08 22:57N 60°02' E 029°24'0 0.1
2018-May-08 22:30N 60°02' E 029°24'0 0.1
2018-May-08 22:00N 60°02' E 029°25'0 0.0
2018-May-08 16:24N 60°02' E 029°25'0 0.0
2018-May-08 15:57N 60°02' E 029°25'  

Dump ship's entire track history